Lochloosa, Florida
Current Conditions -  °F | °C
As of 2:53 AM on Saturday 01 Nov 2014 (Local Time) from KGNV Reporting Station
Clear Clear  
Wind Chill: 52°   Ceiling: Unl
Heat Index: 52°   Visibility: 10mi
Dew Point: 45°   Wind: 7mph
Humidity: 77%   Direction: 290°WNW
Pressure: 29.89"   Gusts: NA
Location:  29.51°N, 82.1°W
Report Text: KGNV 010653Z AUTO 29006KT 10SM CLR 11/07 A2989 RMK AO2 SLP120 T01110072
Loading
Personal Weather Stations






























Interactive Weather Map
Tropical Storm Tracking
New forecast layout! Learn more

10-Day Weather Forecast

Advertisements
Track Severe Weather on mobile